Time;durP1;ratioP1;P1;durP2;ratioP2;P2;SDS_P1;SDS_P2;PMS_P1;PMS_P2;Temp;Humidity;BMP_temperature;BMP_pressure;BME280_temperature;BME280_humidity;BME280_pressure;Samples;Min_cycle;Max_cycle;Signal;HPM_P1;HPM_P2
2021/11/24 00:01:47;;;;;;;;;;;6.20;99.90;;;;;;5096077;28;20409;-80
2021/11/24 00:04:12;;;;;;;;;;;6.20;99.90;;;;;;5095899;28;19998;-80
2021/11/24 00:06:38;;;;;;;;;;;6.20;99.90;;;;;;5095808;28;19908;-79
2021/11/24 00:09:04;;;;;;;;;;;6.10;99.90;;;;;;5095780;28;19916;-80
2021/11/24 00:11:29;;;;;;;;;;;6.00;99.90;;;;;;5095755;28;19915;-80
2021/11/24 00:13:58;;;;;;;;;;;6.00;99.90;;;;;;5095647;28;19934;-79
2021/11/24 00:16:24;;;;;;;;;;;6.00;99.90;;;;;;5095592;28;20376;-79
2021/11/24 00:18:50;;;;;;;;;;;6.00;99.90;;;;;;5095565;28;19915;-80
2021/11/24 00:21:15;;;;;;;;;;;6.00;99.90;;;;;;5095527;28;19908;-80
2021/11/24 00:23:41;;;;;;;;;;;6.00;99.90;;;;;;5093110;28;19947;-79
2021/11/24 00:26:06;;;;;;;;;;;5.90;99.90;;;;;;5095437;28;19915;-80
2021/11/24 00:28:32;;;;;;;;;;;5.90;99.90;;;;;;5094106;28;19915;-80
2021/11/24 00:30:58;;;;;;;;;;;5.90;99.90;;;;;;5095527;28;20368;-80
2021/11/24 00:33:24;;;;;;;;;;;5.90;99.90;;;;;;5095233;28;19912;-80
2021/11/24 00:35:49;;;;;;;;;;;5.80;99.90;;;;;;5095203;28;19994;-80
2021/11/24 00:38:15;;;;;;;;;;;5.80;99.90;;;;;;5095079;28;19915;-80
2021/11/24 00:40:42;;;;;;;;;;;5.70;99.90;;;;;;5095069;28;20360;-80
2021/11/24 00:43:07;;;;;;;;;;;5.70;99.90;;;;;;5095087;28;20015;-79
2021/11/24 00:45:33;;;;;;;;;;;5.70;99.90;;;;;;5095148;28;19955;-79
2021/11/24 00:47:58;;;;;;;;;;;5.80;99.90;;;;;;5095177;28;19908;-79
2021/11/24 00:50:24;;;;;;;;;;;5.80;99.90;;;;;;5094970;28;19914;-79
2021/11/24 00:52:51;;;;;;;;;;;5.80;99.90;;;;;;5094971;28;19934;-79
2021/11/24 00:55:17;;;;;;;;;;;5.70;99.90;;;;;;5093526;28;19916;-79
2021/11/24 00:57:43;;;;;;;;;;;5.70;99.90;;;;;;5094991;28;19957;-79
2021/11/24 01:00:14;;;;;;;;;;;5.80;99.90;;;;;;5094762;28;20286;-80
2021/11/24 01:02:40;;;;;;;;;;;5.80;99.90;;;;;;5093169;28;19908;-80
2021/11/24 01:05:06;;;;;;;;;;;5.80;99.90;;;;;;5095138;28;19957;-80
2021/11/24 01:07:31;;;;;;;;;;;5.70;99.90;;;;;;5094681;28;20288;-79
2021/11/24 01:09:57;;;;;;;;;;;5.60;99.90;;;;;;5094288;28;19962;-80
2021/11/24 01:12:23;;;;;;;;;;;5.60;99.90;;;;;;5094552;28;19912;-79
2021/11/24 01:14:49;;;;;;;;;;;5.60;99.90;;;;;;5094519;28;19916;-79
2021/11/24 01:17:14;;;;;;;;;;;5.60;99.90;;;;;;5093201;28;19940;-79
2021/11/24 01:19:40;;;;;;;;;;;5.60;99.90;;;;;;5093161;28;19997;-80
2021/11/24 01:22:05;;;;;;;;;;;5.60;99.90;;;;;;5094525;28;19947;-79
2021/11/24 01:24:31;;;;;;;;;;;5.50;99.90;;;;;;5093118;28;19908;-79
2021/11/24 01:26:57;;;;;;;;;;;5.50;99.90;;;;;;5094307;28;20287;-80
2021/11/24 01:29:22;;;;;;;;;;;5.40;99.90;;;;;;5094704;28;19915;-80
2021/11/24 01:31:48;;;;;;;;;;;5.40;99.90;;;;;;5094242;28;19954;-79
2021/11/24 01:34:13;;;;;;;;;;;5.50;99.90;;;;;;5093812;28;19938;-79
2021/11/24 01:36:39;;;;;;;;;;;5.50;99.90;;;;;;5094295;28;19915;-79
2021/11/24 01:39:04;;;;;;;;;;;5.50;99.90;;;;;;5094347;28;19934;-80
2021/11/24 01:41:30;;;;;;;;;;;5.50;99.90;;;;;;5094068;28;19915;-79
2021/11/24 01:43:56;;;;;;;;;;;5.60;99.90;;;;;;5094048;28;20284;-79
2021/11/24 01:46:25;;;;;;;;;;;5.50;99.90;;;;;;5094146;28;19908;-80
2021/11/24 01:48:51;;;;;;;;;;;5.50;99.90;;;;;;5093889;28;20364;-80
2021/11/24 01:51:18;;;;;;;;;;;5.50;99.90;;;;;;5093930;28;19908;-79
2021/11/24 01:53:43;;;;;;;;;;;5.40;99.90;;;;;;5092560;28;19912;-80
2021/11/24 01:56:09;;;;;;;;;;;5.40;99.90;;;;;;5094483;28;19931;-79
2021/11/24 01:58:36;;;;;;;;;;;5.40;99.90;;;;;;5093797;28;19912;-79
2021/11/24 02:01:02;;;;;;;;;;;5.50;99.90;;;;;;5093904;28;19908;-79
2021/11/24 02:03:27;;;;;;;;;;;5.50;99.90;;;;;;5093876;28;19991;-80
2021/11/24 02:05:53;;;;;;;;;;;5.40;99.90;;;;;;5094036;28;19955;-80
2021/11/24 02:08:18;;;;;;;;;;;5.30;99.90;;;;;;5093967;28;19912;-79
2021/11/24 02:10:44;;;;;;;;;;;5.30;99.90;;;;;;5093295;28;19920;-79
2021/11/24 02:13:10;;;;;;;;;;;5.20;99.90;;;;;;5092456;28;19908;-79
2021/11/24 02:15:35;;;;;;;;;;;5.30;99.90;;;;;;5093689;28;20331;-79
2021/11/24 02:18:02;;;;;;;;;;;5.30;99.90;;;;;;5093659;28;19994;-79
2021/11/24 02:20:33;;;;;;;;;;;5.30;99.90;;;;;;5093667;28;19912;-80
2021/11/24 02:22:59;;;;;;;;;;;5.40;99.90;;;;;;5093654;28;19908;-79
2021/11/24 02:25:25;;;;;;;;;;;5.40;99.90;;;;;;5092315;28;20421;-79
2021/11/24 02:27:50;;;;;;;;;;;5.40;99.90;;;;;;5092345;28;20393;-79
2021/11/24 02:30:16;;;;;;;;;;;5.30;99.90;;;;;;5093583;28;19931;-79
2021/11/24 02:32:42;;;;;;;;;;;5.20;99.90;;;;;;5093541;28;19908;-79
2021/11/24 02:35:07;;;;;;;;;;;5.30;99.90;;;;;;5093445;28;19916;-80
2021/11/24 02:37:33;;;;;;;;;;;5.10;99.90;;;;;;5093507;28;20436;-79
2021/11/24 02:39:59;;;;;;;;;;;5.20;99.90;;;;;;5093380;28;19913;-79
2021/11/24 02:42:24;;;;;;;;;;;5.20;99.90;;;;;;5092155;28;19954;-80
2021/11/24 02:44:51;;;;;;;;;;;5.20;99.90;;;;;;5093433;28;19958;-79
2021/11/24 02:47:19;;;;;;;;;;;5.20;99.90;;;;;;5095608;28;19912;-80
2021/11/24 02:49:46;;;;;;;;;;;5.20;99.90;;;;;;5097323;28;19957;-79
2021/11/24 02:52:12;;;;;;;;;;;5.20;99.90;;;;;;5095981;28;19908;-79
2021/11/24 02:54:39;;;;;;;;;;;5.20;99.90;;;;;;5097164;28;19916;-79
2021/11/24 02:57:06;;;;;;;;;;;5.10;99.90;;;;;;5097226;28;19912;-80
2021/11/24 02:59:32;;;;;;;;;;;5.10;99.90;;;;;;5097129;28;19969;-79
2021/11/24 03:01:57;;;;;;;;;;;5.10;99.90;;;;;;5097040;28;19931;-80
2021/11/24 03:04:27;;;;;;;;;;;5.00;99.90;;;;;;5095745;28;19908;-79
2021/11/24 03:06:53;;;;;;;;;;;5.10;99.90;;;;;;5097097;28;19908;-79
2021/11/24 03:09:18;;;;;;;;;;;5.10;99.90;;;;;;5096742;28;19943;-80
2021/11/24 03:11:44;;;;;;;;;;;5.00;99.90;;;;;;5097064;28;19908;-80
2021/11/24 03:14:10;;;;;;;;;;;4.90;99.90;;;;;;5096786;28;19919;-79
2021/11/24 03:16:35;;;;;;;;;;;5.00;99.90;;;;;;5096955;28;19908;-80
2021/11/24 03:19:01;;;;;;;;;;;5.10;99.90;;;;;;5096797;28;19908;-79
2021/11/24 03:21:26;;;;;;;;;;;5.20;99.90;;;;;;5095743;28;19915;-80
2021/11/24 03:23:52;;;;;;;;;;;5.10;99.90;;;;;;5096721;28;19908;-79
2021/11/24 03:26:18;;;;;;;;;;;5.20;99.90;;;;;;5096631;28;20292;-80
2021/11/24 03:28:43;;;;;;;;;;;5.10;99.90;;;;;;5095312;28;19998;-79
2021/11/24 03:31:09;;;;;;;;;;;5.00;99.90;;;;;;5096821;28;19915;-79
2021/11/24 03:33:34;;;;;;;;;;;5.10;99.90;;;;;;5096433;28;19912;-79
2021/11/24 03:36:00;;;;;;;;;;;5.10;99.90;;;;;;5096568;28;19908;-79
2021/11/24 03:38:26;;;;;;;;;;;5.00;99.90;;;;;;5096372;28;19908;-79
2021/11/24 03:40:52;;;;;;;;;;;5.00;99.90;;;;;;5096294;28;20388;-80
2021/11/24 03:43:17;;;;;;;;;;;5.10;99.90;;;;;;5096499;28;20125;-79
2021/11/24 03:45:43;;;;;;;;;;;5.00;99.90;;;;;;5096327;28;19915;-80
2021/11/24 03:48:09;;;;;;;;;;;5.10;99.90;;;;;;5096230;28;20335;-79
2021/11/24 03:50:35;;;;;;;;;;;5.10;99.90;;;;;;5096162;28;19908;-79
2021/11/24 03:53:01;;;;;;;;;;;5.00;99.90;;;;;;5096301;28;19908;-79
2021/11/24 03:55:26;;;;;;;;;;;5.00;99.90;;;;;;5094709;28;19912;-80
2021/11/24 03:57:52;;;;;;;;;;;4.90;99.90;;;;;;5095966;28;19908;-80
2021/11/24 04:00:21;;;;;;;;;;;4.90;99.90;;;;;;5096012;28;19915;-80
2021/11/24 04:02:46;;;;;;;;;;;4.70;99.90;;;;;;5094612;28;20280;-79
2021/11/24 04:05:12;;;;;;;;;;;4.60;99.90;;;;;;5096337;28;19923;-80
2021/11/24 04:07:38;;;;;;;;;;;4.50;99.90;;;;;;5096030;28;19912;-79
2021/11/24 04:10:05;;;;;;;;;;;4.50;99.90;;;;;;5095572;28;19920;-80
2021/11/24 04:12:31;;;;;;;;;;;4.50;99.90;;;;;;5095896;28;19915;-80
2021/11/24 04:14:56;;;;;;;;;;;4.40;99.90;;;;;;5095619;28;19916;-79
2021/11/24 04:17:22;;;;;;;;;;;4.30;99.90;;;;;;5096088;28;19908;-79
2021/11/24 04:19:48;;;;;;;;;;;4.40;99.90;;;;;;5095616;28;19912;-80
2021/11/24 04:22:13;;;;;;;;;;;4.50;99.90;;;;;;5095544;28;19908;-79
2021/11/24 04:24:40;;;;;;;;;;;4.50;99.90;;;;;;5095498;28;19908;-79
2021/11/24 04:27:05;;;;;;;;;;;4.40;99.90;;;;;;5094184;28;19908;-80
2021/11/24 04:29:31;;;;;;;;;;;4.40;99.90;;;;;;5095413;28;20275;-79
2021/11/24 04:31:57;;;;;;;;;;;4.40;99.90;;;;;;5095352;28;20007;-79
2021/11/24 04:34:23;;;;;;;;;;;4.40;99.90;;;;;;5093936;28;19912;-79
2021/11/24 04:36:48;;;;;;;;;;;4.40;99.90;;;;;;5095409;28;19912;-79
2021/11/24 04:39:14;;;;;;;;;;;4.30;99.90;;;;;;5093867;28;20265;-80
2021/11/24 04:41:39;;;;;;;;;;;4.30;99.90;;;;;;5095571;28;20376;-79
2021/11/24 04:44:05;;;;;;;;;;;4.30;99.90;;;;;;5095417;28;19908;-79
2021/11/24 04:46:31;;;;;;;;;;;4.30;99.90;;;;;;5095072;28;19909;-79
2021/11/24 04:48:56;;;;;;;;;;;4.40;99.90;;;;;;5095131;28;19908;-79
2021/11/24 04:51:22;;;;;;;;;;;4.40;99.90;;;;;;5094974;28;19914;-79
2021/11/24 04:53:47;;;;;;;;;;;4.40;99.90;;;;;;5095264;28;20388;-79
2021/11/24 04:56:13;;;;;;;;;;;4.30;99.90;;;;;;5095032;28;19916;-79
2021/11/24 04:58:51;;;;;;;;;;;4.40;99.90;;;;;;5094894;28;19908;-79
2021/11/24 05:01:17;;;;;;;;;;;4.30;99.90;;;;;;5093248;28;19957;-79
2021/11/24 05:03:42;;;;;;;;;;;4.30;99.90;;;;;;5094671;28;19912;-79
2021/11/24 05:06:08;;;;;;;;;;;4.20;99.90;;;;;;5094733;28;20383;-79
2021/11/24 05:08:35;;;;;;;;;;;4.20;99.90;;;;;;5094412;28;20026;-79
2021/11/24 05:11:04;;;;;;;;;;;4.10;99.90;;;;;;5094260;28;19912;-79
2021/11/24 05:13:29;;;;;;;;;;;4.10;99.90;;;;;;5094569;28;19930;-80
2021/11/24 05:15:58;;;;;;;;;;;4.10;99.90;;;;;;5094532;28;19999;-79
2021/11/24 05:18:30;;;;;;;;;;;4.10;99.90;;;;;;5094465;28;20042;-79
2021/11/24 05:21:02;;;;;;;;;;;4.20;99.90;;;;;;5094666;28;19908;-80
2021/11/24 05:23:30;;;;;;;;;;;4.40;99.90;;;;;;5094351;28;19909;-79
2021/11/24 05:25:56;;;;;;;;;;;4.40;99.90;;;;;;5094354;28;19914;-80
2021/11/24 05:28:21;;;;;;;;;;;4.40;99.90;;;;;;5093066;28;19995;-79
2021/11/24 05:30:47;;;;;;;;;;;4.40;99.90;;;;;;5094371;28;19912;-79
2021/11/24 05:33:12;;;;;;;;;;;4.30;99.90;;;;;;5094226;28;19915;-79
2021/11/24 05:35:38;;;;;;;;;;;4.10;99.90;;;;;;5094195;28;20292;-79
2021/11/24 05:38:03;;;;;;;;;;;3.80;99.90;;;;;;5094162;28;19908;-80
2021/11/24 05:40:29;;;;;;;;;;;3.90;99.90;;;;;;5094077;28;19908;-80
2021/11/24 05:42:54;;;;;;;;;;;3.80;99.90;;;;;;5094084;28;19908;-79
2021/11/24 05:48:02;;;;;;;;;;;3.70;99.90;;;;;;5093778;28;19919;-79
2021/11/24 05:50:29;;;;;;;;;;;3.60;99.90;;;;;;5093990;28;19984;-79
2021/11/24 05:52:54;;;;;;;;;;;3.60;99.90;;;;;;5094105;28;19912;-80
2021/11/24 05:55:21;;;;;;;;;;;3.70;99.90;;;;;;5094040;28;20364;-79
2021/11/24 05:57:46;;;;;;;;;;;3.70;99.90;;;;;;5093868;28;20445;-80
2021/11/24 06:00:12;;;;;;;;;;;3.70;99.90;;;;;;5092641;28;19908;-80
2021/11/24 06:02:38;;;;;;;;;;;3.50;99.90;;;;;;5093943;28;20307;-80
2021/11/24 06:05:04;;;;;;;;;;;3.70;99.90;;;;;;5092488;28;20265;-79
2021/11/24 06:07:29;;;;;;;;;;;3.70;99.90;;;;;;5093768;28;19908;-79
2021/11/24 06:09:55;;;;;;;;;;;3.90;99.90;;;;;;5093615;28;19985;-80
2021/11/24 06:12:20;;;;;;;;;;;3.70;99.90;;;;;;5093930;28;19908;-79
2021/11/24 06:14:46;;;;;;;;;;;3.50;99.90;;;;;;5093742;28;19962;-79
2021/11/24 06:17:12;;;;;;;;;;;3.40;99.90;;;;;;5093853;28;19908;-79
2021/11/24 06:19:37;;;;;;;;;;;3.50;99.90;;;;;;5093652;28;20521;-79
2021/11/24 06:22:03;;;;;;;;;;;3.50;99.90;;;;;;5095452;28;19915;-79
2021/11/24 06:24:29;;;;;;;;;;;3.40;99.90;;;;;;5096439;28;19912;-79
2021/11/24 06:26:55;;;;;;;;;;;3.30;99.90;;;;;;5097784;28;19908;-79
2021/11/24 06:29:20;;;;;;;;;;;3.40;99.90;;;;;;5097703;28;19916;-80
2021/11/24 06:31:46;;;;;;;;;;;3.50;99.90;;;;;;5097635;28;20389;-79
2021/11/24 06:34:11;;;;;;;;;;;3.40;99.90;;;;;;5097572;28;19915;-79
2021/11/24 06:36:37;;;;;;;;;;;3.40;99.90;;;;;;5097611;28;19908;-80
2021/11/24 06:39:03;;;;;;;;;;;3.50;99.90;;;;;;5097627;28;20368;-80
2021/11/24 06:41:28;;;;;;;;;;;3.50;99.90;;;;;;5097517;28;20373;-80
2021/11/24 06:43:54;;;;;;;;;;;3.50;99.90;;;;;;5097778;28;19912;-79
2021/11/24 06:46:19;;;;;;;;;;;3.40;99.90;;;;;;5097391;28;19978;-79
2021/11/24 06:48:45;;;;;;;;;;;3.60;99.90;;;;;;5097342;28;19908;-79
2021/11/24 06:51:11;;;;;;;;;;;3.70;99.90;;;;;;5097383;28;19908;-79
2021/11/24 06:53:36;;;;;;;;;;;3.60;99.90;;;;;;5096023;28;19998;-80
2021/11/24 06:56:02;;;;;;;;;;;3.60;99.90;;;;;;5097268;28;19990;-79
2021/11/24 06:58:28;;;;;;;;;;;3.60;99.90;;;;;;5097168;28;19912;-79
2021/11/24 07:00:53;;;;;;;;;;;3.60;99.90;;;;;;5097054;28;19908;-79
2021/11/24 07:03:19;;;;;;;;;;;3.60;99.90;;;;;;5097029;28;19912;-79
2021/11/24 07:05:45;;;;;;;;;;;3.60;99.90;;;;;;5095729;28;20402;-79
2021/11/24 07:08:10;;;;;;;;;;;3.60;99.90;;;;;;5097035;28;19915;-79
2021/11/24 07:10:36;;;;;;;;;;;3.50;99.90;;;;;;5096504;28;19920;-80
2021/11/24 07:13:02;;;;;;;;;;;3.60;99.90;;;;;;5095423;28;20011;-79
2021/11/24 07:15:27;;;;;;;;;;;3.60;99.90;;;;;;5096657;28;19955;-79
2021/11/24 07:17:53;;;;;;;;;;;3.50;99.90;;;;;;5095475;28;20318;-79
2021/11/24 07:20:19;;;;;;;;;;;3.40;99.90;;;;;;5096810;28;19912;-80
2021/11/24 07:22:45;;;;;;;;;;;3.50;99.90;;;;;;5095428;28;19943;-80
2021/11/24 07:25:11;;;;;;;;;;;3.60;99.90;;;;;;5096566;28;19938;-79
2021/11/24 07:27:37;;;;;;;;;;;3.60;99.90;;;;;;5095313;28;19914;-80
2021/11/24 07:30:03;;;;;;;;;;;3.60;99.90;;;;;;5095309;28;19912;-79
2021/11/24 07:32:29;;;;;;;;;;;3.50;99.90;;;;;;5096072;28;19974;-79
2021/11/24 07:34:54;;;;;;;;;;;3.40;99.90;;;;;;5096515;28;19916;-79
2021/11/24 07:37:20;;;;;;;;;;;3.50;99.90;;;;;;5096431;28;19995;-79
2021/11/24 07:39:46;;;;;;;;;;;3.60;99.90;;;;;;5095050;28;19912;-80
2021/11/24 07:42:11;;;;;;;;;;;3.70;99.90;;;;;;5096370;28;19908;-79
2021/11/24 07:44:37;;;;;;;;;;;3.80;99.90;;;;;;5096832;28;19912;-80
2021/11/24 07:47:02;;;;;;;;;;;3.80;99.90;;;;;;5096239;28;19908;-79
2021/11/24 07:49:28;;;;;;;;;;;3.80;99.90;;;;;;5096152;28;19912;-79
2021/11/24 07:51:54;;;;;;;;;;;3.80;99.90;;;;;;5096164;28;19908;-79
2021/11/24 07:54:19;;;;;;;;;;;3.80;99.90;;;;;;5096255;28;19912;-79
2021/11/24 07:56:45;;;;;;;;;;;3.70;99.90;;;;;;5096072;28;20007;-79
2021/11/24 07:59:15;;;;;;;;;;;3.70;99.90;;;;;;5095975;28;20408;-79
2021/11/24 08:01:40;;;;;;;;;;;3.80;99.90;;;;;;5095964;28;19961;-80
2021/11/24 08:04:06;;;;;;;;;;;4.10;99.90;;;;;;5095895;28;19916;-79
2021/11/24 08:06:31;;;;;;;;;;;4.10;99.90;;;;;;5095826;28;20265;-80
2021/11/24 08:08:57;;;;;;;;;;;4.40;99.90;;;;;;5095643;28;20262;-80
2021/11/24 08:11:23;;;;;;;;;;;4.50;99.90;;;;;;5095843;28;19931;-80
2021/11/24 08:13:49;;;;;;;;;;;4.70;99.90;;;;;;5095668;28;19958;-79
2021/11/24 08:16:15;;;;;;;;;;;4.90;99.90;;;;;;5094422;28;19912;-78
2021/11/24 08:18:40;;;;;;;;;;;5.10;99.90;;;;;;5094421;28;20376;-80
2021/11/24 08:21:06;;;;;;;;;;;5.60;99.90;;;;;;5095588;28;19908;-79
2021/11/24 08:23:31;;;;;;;;;;;6.20;99.90;;;;;;5095712;28;20376;-80
2021/11/24 08:25:58;;;;;;;;;;;6.60;99.90;;;;;;5095478;28;19908;-80
2021/11/24 08:28:24;;;;;;;;;;;7.00;99.90;;;;;;5095347;28;19908;-80
2021/11/24 08:30:49;;;;;;;;;;;7.40;99.90;;;;;;5095365;28;20010;-80
2021/11/24 08:33:15;;;;;;;;;;;8.20;99.90;;;;;;5095220;28;19908;-80
2021/11/24 08:35:41;;;;;;;;;;;8.90;99.60;;;;;;5093920;28;19915;-80
2021/11/24 08:38:06;;;;;;;;;;;9.40;96.90;;;;;;5095680;28;19909;-80
2021/11/24 08:40:32;;;;;;;;;;;9.80;95.20;;;;;;5094952;28;19957;-80
2021/11/24 08:42:58;;;;;;;;;;;9.80;94.30;;;;;;5095379;28;19908;-80
2021/11/24 08:45:26;;;;;;;;;;;10.30;94.40;;;;;;5094114;28;19962;-80
2021/11/24 08:47:52;;;;;;;;;;;10.60;93.60;;;;;;5095069;28;19913;-80
2021/11/24 08:50:18;;;;;;;;;;;11.20;91.50;;;;;;5095110;28;19908;-80
2021/11/24 08:52:44;;;;;;;;;;;11.60;90.10;;;;;;5094963;28;20257;-80
2021/11/24 08:55:10;;;;;;;;;;;11.70;88.60;;;;;;5094895;28;19915;-80
2021/11/24 08:57:37;;;;;;;;;;;12.40;87.60;;;;;;5094910;28;19908;-80
2021/11/24 09:00:05;;;;;;;;;;;13.30;82.80;;;;;;5094908;28;19923;-80
2021/11/24 09:02:31;;;;;;;;;;;13.60;81.70;;;;;;5094853;28;19908;-80
2021/11/24 09:04:56;;;;;;;;;;;14.60;77.20;;;;;;5093377;28;19912;-81
2021/11/24 09:07:22;;;;;;;;;;;14.60;74.30;;;;;;5094974;28;19953;-79
2021/11/24 09:09:48;;;;;;;;;;;14.20;74.80;;;;;;5093140;28;19950;-79
2021/11/24 09:12:13;;;;;;;;;;;13.80;75.80;;;;;;5094596;28;19908;-79
2021/11/24 09:14:39;;;;;;;;;;;13.70;76.80;;;;;;5094533;28;19916;-79
2021/11/24 09:17:04;;;;;;;;;;;14.50;77.10;;;;;;5094976;28;20410;-79
2021/11/24 09:19:30;;;;;;;;;;;15.30;73.30;;;;;;5093174;28;19915;-79
2021/11/24 09:21:55;;;;;;;;;;;15.40;71.80;;;;;;5094400;28;19937;-79
2021/11/24 09:24:26;;;;;;;;;;;15.50;71.60;;;;;;5094390;28;19937;-79
2021/11/24 09:26:58;;;;;;;;;;;15.70;71.00;;;;;;5094321;28;19984;-79
2021/11/24 09:29:25;;;;;;;;;;;16.30;68.00;;;;;;5094332;28;20280;-79
2021/11/24 09:31:52;;;;;;;;;;;16.50;68.50;;;;;;5092949;28;20055;-79
2021/11/24 09:34:17;;;;;;;;;;;16.80;66.40;;;;;;5094364;28;19933;-79
2021/11/24 09:36:43;;;;;;;;;;;18.00;63.50;;;;;;5094457;28;19998;-80
2021/11/24 09:39:10;;;;;;;;;;;17.70;64.40;;;;;;5094084;28;19912;-79
2021/11/24 09:41:40;;;;;;;;;;;17.80;63.30;;;;;;5094112;28;20357;-79
2021/11/24 09:44:06;;;;;;;;;;;18.50;62.60;;;;;;5094456;28;19909;-79
2021/11/24 09:46:33;;;;;;;;;;;18.90;60.50;;;;;;5094351;28;19938;-80
2021/11/24 09:49:01;;;;;;;;;;;19.00;60.70;;;;;;5093981;28;19912;-79
2021/11/24 09:51:27;;;;;;;;;;;20.20;59.20;;;;;;5094028;28;19930;-80
2021/11/24 09:53:53;;;;;;;;;;;20.70;57.50;;;;;;5092578;28;19912;-80
2021/11/24 09:56:18;;;;;;;;;;;20.90;56.20;;;;;;5093640;28;20399;-79
2021/11/24 09:58:45;;;;;;;;;;;21.40;55.10;;;;;;5093899;28;19946;-80
2021/11/24 10:01:10;;;;;;;;;;;21.60;54.30;;;;;;5093827;28;20026;-79
2021/11/24 10:03:36;;;;;;;;;;;22.60;54.00;;;;;;5093801;28;20392;-79
2021/11/24 10:06:02;;;;;;;;;;;23.30;51.90;;;;;;5093789;28;19922;-80
2021/11/24 10:08:32;;;;;;;;;;;23.50;51.70;;;;;;5093967;28;19987;-80
2021/11/24 10:10:59;;;;;;;;;;;23.80;50.30;;;;;;5094112;28;19927;-79
2021/11/24 10:13:24;;;;;;;;;;;24.40;49.80;;;;;;5093736;28;19930;-79
2021/11/24 10:15:52;;;;;;;;;;;24.50;49.10;;;;;;5093619;28;20365;-80
2021/11/24 10:18:35;;;;;;;;;;;24.80;48.60;;;;;;5092388;28;19908;-79
2021/11/24 10:21:09;;;;;;;;;;;25.20;48.20;;;;;;5093947;28;19908;-79
2021/11/24 10:23:37;;;;;;;;;;;26.00;47.50;;;;;;5093636;28;19961;-79
2021/11/24 10:26:20;;;;;;;;;;;25.50;47.60;;;;;;5093846;28;19915;-79
2021/11/24 10:28:51;;;;;;;;;;;25.80;47.60;;;;;;5093573;28;19916;-79
2021/11/24 10:31:39;;;;;;;;;;;25.50;46.90;;;;;;5093547;28;19908;-79
2021/11/24 10:34:11;;;;;;;;;;;25.20;47.70;;;;;;5093492;28;20391;-79
2021/11/24 10:36:47;;;;;;;;;;;25.10;47.70;;;;;;5093696;28;19946;-79
2021/11/24 10:39:13;;;;;;;;;;;26.10;46.40;;;;;;5093614;28;19914;-79
2021/11/24 10:41:39;;;;;;;;;;;26.40;45.90;;;;;;5093536;28;20372;-79
2021/11/24 10:44:05;;;;;;;;;;;26.30;45.90;;;;;;5093503;28;20273;-79
2021/11/24 10:46:32;;;;;;;;;;;26.50;45.80;;;;;;5093911;28;19948;-79
2021/11/24 10:49:03;;;;;;;;;;;27.20;44.70;;;;;;5092166;28;20269;-79
2021/11/24 10:51:34;;;;;;;;;;;26.90;44.30;;;;;;5093477;28;19912;-79
2021/11/24 10:54:16;;;;;;;;;;;26.70;44.50;;;;;;5092070;28;20330;-79
2021/11/24 10:57:00;;;;;;;;;;;25.90;44.50;;;;;;5093700;28;19914;-79
2021/11/24 10:59:25;;;;;;;;;;;25.00;45.00;;;;;;5093339;28;19908;-78
2021/11/24 11:01:52;;;;;;;;;;;25.30;45.70;;;;;;5093360;28;20387;-79
2021/11/24 11:04:18;;;;;;;;;;;24.80;45.00;;;;;;5093273;28;19908;-78
2021/11/24 11:06:44;;;;;;;;;;;26.30;45.20;;;;;;5093633;28;19915;-79
2021/11/24 11:09:09;;;;;;;;;;;27.10;43.80;;;;;;5096287;28;19999;-79
2021/11/24 11:11:36;;;;;;;;;;;26.50;44.20;;;;;;5097103;28;19915;-79
2021/11/24 11:14:31;;;;;;;;;;;27.80;43.90;;;;;;5096832;28;19961;-79
2021/11/24 11:16:58;;;;;;;;;;;28.50;42.90;;;;;;5092020;28;19909;-79
2021/11/24 11:19:44;;;;;;;;;;;28.30;42.50;;;;;;5097044;28;20372;-78
2021/11/24 11:22:10;;;;;;;;;;;27.90;42.30;;;;;;5096724;28;20433;-79
2021/11/24 11:24:36;;;;;;;;;;;28.10;42.70;;;;;;5096655;28;19912;-79
2021/11/24 11:27:02;;;;;;;;;;;26.80;43.30;;;;;;5095382;28;19908;-79
2021/11/24 11:29:28;;;;;;;;;;;27.70;43.00;;;;;;5096607;28;19908;-79
2021/11/24 11:31:55;;;;;;;;;;;28.60;42.40;;;;;;5096564;28;19908;-79
2021/11/24 11:34:21;;;;;;;;;;;28.40;43.00;;;;;;5096481;28;19923;-78
2021/11/24 11:36:47;;;;;;;;;;;29.40;41.90;;;;;;5096490;28;19913;-79
2021/11/24 11:39:13;;;;;;;;;;;29.30;42.10;;;;;;5096522;28;19915;-79
2021/11/24 11:41:39;;;;;;;;;;;28.60;42.20;;;;;;5096349;28;19912;-79
2021/11/24 11:44:05;;;;;;;;;;;29.20;41.60;;;;;;5096467;28;19908;-79
2021/11/24 11:46:41;;;;;;;;;;;29.10;41.50;;;;;;5096315;28;19957;-78
2021/11/24 11:49:08;;;;;;;;;;;30.00;41.60;;;;;;5094723;28;19909;-78
2021/11/24 11:51:37;;;;;;;;;;;29.80;40.60;;;;;;5096219;28;20385;-79
2021/11/24 11:54:03;;;;;;;;;;;29.10;41.20;;;;;;5096054;28;19918;-78
2021/11/24 11:56:30;;;;;;;;;;;28.20;42.20;;;;;;5096160;28;19912;-79
2021/11/24 11:58:57;;;;;;;;;;;27.90;43.40;;;;;;5096213;28;19908;-79
2021/11/24 12:01:26;;;;;;;;;;;28.40;42.50;;;;;;5096054;28;19909;-79
2021/11/24 12:03:55;;;;;;;;;;;29.70;41.00;;;;;;5095926;28;19912;-79
2021/11/24 12:06:23;;;;;;;;;;;29.80;40.60;;;;;;5094614;28;19908;-79
2021/11/24 12:09:10;;;;;;;;;;;30.80;40.50;;;;;;5095980;28;19998;-79
2021/11/24 12:11:54;;;;;;;;;;;30.90;39.10;;;;;;5095860;28;19912;-79
2021/11/24 12:14:38;;;;;;;;;;;30.40;39.30;;;;;;5095882;28;20011;-79
2021/11/24 12:17:22;;;;;;;;;;;28.40;41.20;;;;;;5095845;28;19951;-79
2021/11/24 12:19:47;;;;;;;;;;;28.30;41.20;;;;;;5095778;28;19908;-79
2021/11/24 12:22:13;;;;;;;;;;;28.70;40.80;;;;;;5095588;28;19915;-79
2021/11/24 12:24:39;;;;;;;;;;;27.70;41.10;;;;;;5095548;28;20394;-79
2021/11/24 12:27:05;;;;;;;;;;;27.90;40.90;;;;;;5095560;28;19931;-79
2021/11/24 12:29:47;;;;;;;;;;;28.70;40.30;;;;;;5094201;28;20375;-79
2021/11/24 12:32:14;;;;;;;;;;;28.00;40.70;;;;;;5095489;28;19994;-79
2021/11/24 12:34:47;;;;;;;;;;;27.10;41.40;;;;;;5095421;28;20328;-79
2021/11/24 12:37:20;;;;;;;;;;;27.50;42.00;;;;;;5095315;28;19908;-79
2021/11/24 12:39:46;;;;;;;;;;;28.90;39.70;;;;;;5095196;28;19908;-79
2021/11/24 12:42:13;;;;;;;;;;;27.70;40.80;;;;;;5095245;28;19912;-79
2021/11/24 12:44:51;;;;;;;;;;;27.90;40.60;;;;;;5095138;28;19912;-79
2021/11/24 12:47:23;;;;;;;;;;;28.50;40.10;;;;;;5095213;28;19994;-76
2021/11/24 12:49:49;;;;;;;;;;;28.60;40.30;;;;;;5095060;28;19922;-76
2021/11/24 12:52:15;;;;;;;;;;;28.50;40.10;;;;;;5095409;28;20007;-76
2021/11/24 12:54:44;;;;;;;;;;;27.90;40.60;;;;;;5094964;28;19958;-76
2021/11/24 12:57:11;;;;;;;;;;;27.70;40.80;;;;;;5094963;28;19908;-76
2021/11/24 12:59:40;;;;;;;;;;;27.50;41.40;;;;;;5094926;28;19957;-77
2021/11/24 13:02:10;;;;;;;;;;;28.40;40.90;;;;;;5094865;28;20368;-77
2021/11/24 13:04:40;;;;;;;;;;;27.80;40.70;;;;;;5095018;28;19963;-76
2021/11/24 13:07:06;;;;;;;;;;;26.30;42.80;;;;;;5094811;28;19914;-76
2021/11/24 13:09:36;;;;;;;;;;;25.80;43.10;;;;;;5094361;28;19920;-76
2021/11/24 13:12:04;;;;;;;;;;;26.90;42.00;;;;;;5094618;28;20355;-76
2021/11/24 13:14:35;;;;;;;;;;;27.10;41.40;;;;;;5094720;28;19996;-76
2021/11/24 13:17:12;;;;;;;;;;;25.60;43.20;;;;;;5094554;28;20387;-76
2021/11/24 13:19:45;;;;;;;;;;;25.10;44.60;;;;;;5093751;28;20333;-76
2021/11/24 13:22:12;;;;;;;;;;;26.40;42.40;;;;;;5094616;28;19912;-76
2021/11/24 13:24:39;;;;;;;;;;;26.40;42.00;;;;;;5094680;28;19934;-77
2021/11/24 13:27:06;;;;;;;;;;;26.30;42.60;;;;;;5094405;28;19931;-77
2021/11/24 13:29:34;;;;;;;;;;;26.70;42.30;;;;;;5094343;28;19908;-77
2021/11/24 13:32:07;;;;;;;;;;;25.50;43.40;;;;;;5093764;28;19947;-76
2021/11/24 13:34:33;;;;;;;;;;;25.70;43.40;;;;;;5094195;28;20384;-77
2021/11/24 13:36:58;;;;;;;;;;;25.20;44.50;;;;;;5094188;28;19932;-76
2021/11/24 13:39:25;;;;;;;;;;;24.90;44.70;;;;;;5094079;28;19908;-76
2021/11/24 13:41:51;;;;;;;;;;;25.10;44.90;;;;;;5094347;28;19914;-76
2021/11/24 13:44:16;;;;;;;;;;;26.10;43.40;;;;;;5094062;28;19912;-76
2021/11/24 13:46:47;;;;;;;;;;;26.20;42.60;;;;;;5094054;28;20307;-76
2021/11/24 13:49:17;;;;;;;;;;;25.00;44.10;;;;;;5094323;28;19908;-76
2021/11/24 13:51:44;;;;;;;;;;;24.80;44.60;;;;;;5094312;28;19931;-76
2021/11/24 13:54:11;;;;;;;;;;;25.50;44.40;;;;;;5093992;28;19915;-76
2021/11/24 13:56:46;;;;;;;;;;;25.20;44.20;;;;;;5093951;28;19915;-76
2021/11/24 13:59:12;;;;;;;;;;;25.00;44.30;;;;;;5093937;28;20347;-76
2021/11/24 14:01:47;;;;;;;;;;;24.70;44.70;;;;;;5094046;28;20380;-76
2021/11/24 14:04:18;;;;;;;;;;;24.30;44.60;;;;;;5093983;28;19912;-75
2021/11/24 14:06:50;;;;;;;;;;;23.70;45.70;;;;;;5094407;28;20335;-75
2021/11/24 14:09:19;;;;;;;;;;;23.40;46.00;;;;;;5093815;28;19973;-76
2021/11/24 14:11:52;;;;;;;;;;;23.10;46.40;;;;;;5093920;28;19999;-76
2021/11/24 14:14:18;;;;;;;;;;;22.80;46.90;;;;;;5093950;28;19908;-76
2021/11/24 14:16:57;;;;;;;;;;;22.70;46.90;;;;;;5093717;28;19915;-76
2021/11/24 14:19:23;;;;;;;;;;;22.30;47.30;;;;;;5093729;28;19915;-76
2021/11/24 14:21:53;;;;;;;;;;;22.10;47.70;;;;;;5093726;28;20003;-76
2021/11/24 14:24:19;;;;;;;;;;;22.00;48.10;;;;;;5093566;28;19954;-76
2021/11/24 14:26:45;;;;;;;;;;;22.40;47.60;;;;;;5093663;28;19948;-76
2021/11/24 14:29:10;;;;;;;;;;;23.00;46.90;;;;;;5093850;28;19908;-76